sensor_id;sensor_type;location;lat;lon;timestamp;P1;durP1;ratioP1;P2;durP2;ratioP2
46835;SDS011;32573;51.290;6.926;2023-01-13T00:00:35;2.35;;;1.00;;
46835;SDS011;32573;51.290;6.926;2023-01-13T00:03:04;2.58;;;0.98;;
46835;SDS011;32573;51.290;6.926;2023-01-13T00:05:32;2.15;;;0.90;;
46835;SDS011;32573;51.290;6.926;2023-01-13T00:08:01;1.65;;;0.90;;
46835;SDS011;32573;51.290;6.926;2023-01-13T00:10:30;2.60;;;1.20;;
46835;SDS011;32573;51.290;6.926;2023-01-13T00:13:07;2.15;;;0.95;;
46835;SDS011;32573;51.290;6.926;2023-01-13T00:15:36;2.25;;;1.05;;
46835;SDS011;32573;51.290;6.926;2023-01-13T00:18:04;2.80;;;1.10;;
46835;SDS011;32573;51.290;6.926;2023-01-13T00:20:32;3.10;;;1.10;;
46835;SDS011;32573;51.290;6.926;2023-01-13T00:23:01;1.98;;;0.90;;
46835;SDS011;32573;51.290;6.926;2023-01-13T00:25:30;2.28;;;1.00;;
46835;SDS011;32573;51.290;6.926;2023-01-13T00:27:58;2.15;;;1.00;;
46835;SDS011;32573;51.290;6.926;2023-01-13T00:30:28;2.35;;;1.00;;
46835;SDS011;32573;51.290;6.926;2023-01-13T00:32:56;2.33;;;1.10;;
46835;SDS011;32573;51.290;6.926;2023-01-13T00:35:25;2.17;;;1.00;;
46835;SDS011;32573;51.290;6.926;2023-01-13T00:37:53;2.25;;;0.90;;
46835;SDS011;32573;51.290;6.926;2023-01-13T00:40:21;3.30;;;1.00;;
46835;SDS011;32573;51.290;6.926;2023-01-13T00:42:50;2.53;;;1.00;;
46835;SDS011;32573;51.290;6.926;2023-01-13T00:45:38;2.38;;;1.08;;
46835;SDS011;32573;51.290;6.926;2023-01-13T00:48:06;3.20;;;1.17;;
46835;SDS011;32573;51.290;6.926;2023-01-13T00:50:34;4.05;;;1.10;;
46835;SDS011;32573;51.290;6.926;2023-01-13T00:53:02;2.47;;;1.10;;
46835;SDS011;32573;51.290;6.926;2023-01-13T00:55:31;2.30;;;1.10;;
46835;SDS011;32573;51.290;6.926;2023-01-13T00:58:02;3.90;;;1.17;;
46835;SDS011;32573;51.290;6.926;2023-01-13T01:00:31;4.05;;;1.10;;
46835;SDS011;32573;51.290;6.926;2023-01-13T01:03:01;2.47;;;1.10;;
46835;SDS011;32573;51.290;6.926;2023-01-13T01:05:31;3.15;;;1.00;;
46835;SDS011;32573;51.290;6.926;2023-01-13T01:08:00;3.35;;;1.00;;
46835;SDS011;32573;51.290;6.926;2023-01-13T01:10:29;2.42;;;1.00;;
46835;SDS011;32573;51.290;6.926;2023-01-13T01:12:58;7.70;;;1.40;;
46835;SDS011;32573;51.290;6.926;2023-01-13T01:15:27;2.85;;;1.00;;
46835;SDS011;32573;51.290;6.926;2023-01-13T01:17:55;3.15;;;0.93;;
46835;SDS011;32573;51.290;6.926;2023-01-13T01:20:25;3.40;;;1.02;;
46835;SDS011;32573;51.290;6.926;2023-01-13T01:22:56;3.35;;;1.15;;
46835;SDS011;32573;51.290;6.926;2023-01-13T01:25:24;2.83;;;1.10;;
46835;SDS011;32573;51.290;6.926;2023-01-13T01:27:52;4.25;;;1.20;;
46835;SDS011;32573;51.290;6.926;2023-01-13T01:30:21;3.13;;;1.10;;
46835;SDS011;32573;51.290;6.926;2023-01-13T01:32:49;3.45;;;1.00;;
46835;SDS011;32573;51.290;6.926;2023-01-13T01:35:17;4.57;;;1.00;;
46835;SDS011;32573;51.290;6.926;2023-01-13T01:37:47;3.35;;;1.13;;
46835;SDS011;32573;51.290;6.926;2023-01-13T01:40:16;4.32;;;1.13;;
46835;SDS011;32573;51.290;6.926;2023-01-13T01:42:44;3.63;;;1.10;;
46835;SDS011;32573;51.290;6.926;2023-01-13T01:45:30;4.13;;;1.00;;
46835;SDS011;32573;51.290;6.926;2023-01-13T01:48:00;4.45;;;1.00;;
46835;SDS011;32573;51.290;6.926;2023-01-13T01:50:31;5.88;;;1.08;;
46835;SDS011;32573;51.290;6.926;2023-01-13T01:53:03;3.85;;;1.08;;
46835;SDS011;32573;51.290;6.926;2023-01-13T01:55:36;2.78;;;1.08;;
46835;SDS011;32573;51.290;6.926;2023-01-13T01:58:06;4.60;;;1.20;;
46835;SDS011;32573;51.290;6.926;2023-01-13T02:00:38;5.40;;;1.15;;
46835;SDS011;32573;51.290;6.926;2023-01-13T02:03:07;4.43;;;1.38;;
46835;SDS011;32573;51.290;6.926;2023-01-13T02:05:39;4.75;;;1.10;;
46835;SDS011;32573;51.290;6.926;2023-01-13T02:08:10;3.65;;;1.13;;
46835;SDS011;32573;51.290;6.926;2023-01-13T02:10:40;4.72;;;1.08;;
46835;SDS011;32573;51.290;6.926;2023-01-13T02:13:12;4.07;;;0.90;;
46835;SDS011;32573;51.290;6.926;2023-01-13T02:15:41;5.47;;;1.10;;
46835;SDS011;32573;51.290;6.926;2023-01-13T02:18:22;4.35;;;1.00;;
46835;SDS011;32573;51.290;6.926;2023-01-13T02:21:11;5.35;;;1.10;;
46835;SDS011;32573;51.290;6.926;2023-01-13T02:24:06;5.80;;;1.10;;
46835;SDS011;32573;51.290;6.926;2023-01-13T02:27:22;4.80;;;1.00;;
46835;SDS011;32573;51.290;6.926;2023-01-13T02:30:08;5.22;;;1.10;;
46835;SDS011;32573;51.290;6.926;2023-01-13T02:33:14;5.07;;;1.05;;
46835;SDS011;32573;51.290;6.926;2023-01-13T02:35:53;4.63;;;1.00;;
46835;SDS011;32573;51.290;6.926;2023-01-13T02:40:59;3.92;;;0.95;;
46835;SDS011;32573;51.290;6.926;2023-01-13T02:43:45;5.45;;;1.15;;
46835;SDS011;32573;51.290;6.926;2023-01-13T02:46:44;2.13;;;0.90;;
46835;SDS011;32573;51.290;6.926;2023-01-13T02:49:19;3.28;;;1.00;;
46835;SDS011;32573;51.290;6.926;2023-01-13T02:51:54;3.63;;;1.10;;
46835;SDS011;32573;51.290;6.926;2023-01-13T02:54:28;3.22;;;1.00;;
46835;SDS011;32573;51.290;6.926;2023-01-13T02:56:58;5.55;;;1.13;;
46835;SDS011;32573;51.290;6.926;2023-01-13T02:59:29;3.00;;;0.90;;
46835;SDS011;32573;51.290;6.926;2023-01-13T03:02:00;3.13;;;0.88;;
46835;SDS011;32573;51.290;6.926;2023-01-13T03:07:38;4.07;;;1.00;;
46835;SDS011;32573;51.290;6.926;2023-01-13T03:10:33;4.85;;;1.10;;
46835;SDS011;32573;51.290;6.926;2023-01-13T03:13:15;5.40;;;1.30;;
46835;SDS011;32573;51.290;6.926;2023-01-13T03:15:53;3.13;;;0.93;;
46835;SDS011;32573;51.290;6.926;2023-01-13T03:18:37;3.72;;;1.02;;
46835;SDS011;32573;51.290;6.926;2023-01-13T03:21:11;3.38;;;1.05;;
46835;SDS011;32573;51.290;6.926;2023-01-13T03:23:48;4.28;;;1.10;;
46835;SDS011;32573;51.290;6.926;2023-01-13T03:26:20;3.58;;;1.10;;
46835;SDS011;32573;51.290;6.926;2023-01-13T03:28:56;2.33;;;0.90;;
46835;SDS011;32573;51.290;6.926;2023-01-13T03:34:01;2.08;;;0.98;;
46835;SDS011;32573;51.290;6.926;2023-01-13T03:36:36;2.75;;;0.98;;
46835;SDS011;32573;51.290;6.926;2023-01-13T03:39:09;3.50;;;1.20;;
46835;SDS011;32573;51.290;6.926;2023-01-13T03:41:43;3.95;;;1.10;;
46835;SDS011;32573;51.290;6.926;2023-01-13T03:44:19;4.90;;;1.10;;
46835;SDS011;32573;51.290;6.926;2023-01-13T03:46:58;5.40;;;1.20;;
46835;SDS011;32573;51.290;6.926;2023-01-13T03:49:35;5.93;;;1.20;;
46835;SDS011;32573;51.290;6.926;2023-01-13T03:52:09;3.97;;;1.00;;
46835;SDS011;32573;51.290;6.926;2023-01-13T03:54:43;3.42;;;1.00;;
46835;SDS011;32573;51.290;6.926;2023-01-13T03:57:16;4.53;;;1.20;;
46835;SDS011;32573;51.290;6.926;2023-01-13T03:59:49;4.80;;;1.00;;
46835;SDS011;32573;51.290;6.926;2023-01-13T04:02:27;4.45;;;1.00;;
46835;SDS011;32573;51.290;6.926;2023-01-13T04:05:05;3.70;;;0.90;;
46835;SDS011;32573;51.290;6.926;2023-01-13T04:07:41;3.25;;;1.05;;
46835;SDS011;32573;51.290;6.926;2023-01-13T04:10:20;3.92;;;1.00;;
46835;SDS011;32573;51.290;6.926;2023-01-13T04:12:55;6.18;;;1.23;;
46835;SDS011;32573;51.290;6.926;2023-01-13T04:15:32;4.65;;;1.20;;
46835;SDS011;32573;51.290;6.926;2023-01-13T04:18:10;3.67;;;1.30;;
46835;SDS011;32573;51.290;6.926;2023-01-13T04:20:42;3.67;;;1.02;;
46835;SDS011;32573;51.290;6.926;2023-01-13T04:23:12;5.15;;;1.20;;
46835;SDS011;32573;51.290;6.926;2023-01-13T04:25:40;5.03;;;1.02;;
46835;SDS011;32573;51.290;6.926;2023-01-13T04:28:10;4.47;;;1.00;;
46835;SDS011;32573;51.290;6.926;2023-01-13T04:30:39;3.78;;;1.10;;
46835;SDS011;32573;51.290;6.926;2023-01-13T04:33:08;4.40;;;1.10;;
46835;SDS011;32573;51.290;6.926;2023-01-13T04:35:39;7.18;;;1.33;;
46835;SDS011;32573;51.290;6.926;2023-01-13T04:38:11;2.80;;;1.08;;
46835;SDS011;32573;51.290;6.926;2023-01-13T04:40:41;3.28;;;1.10;;
46835;SDS011;32573;51.290;6.926;2023-01-13T04:43:10;4.15;;;1.10;;
46835;SDS011;32573;51.290;6.926;2023-01-13T04:45:38;3.10;;;1.10;;
46835;SDS011;32573;51.290;6.926;2023-01-13T04:48:07;5.28;;;1.40;;
46835;SDS011;32573;51.290;6.926;2023-01-13T04:50:39;4.22;;;1.20;;
46835;SDS011;32573;51.290;6.926;2023-01-13T04:53:09;4.15;;;1.20;;
46835;SDS011;32573;51.290;6.926;2023-01-13T04:55:37;8.25;;;1.67;;
46835;SDS011;32573;51.290;6.926;2023-01-13T04:58:06;7.40;;;1.30;;
46835;SDS011;32573;51.290;6.926;2023-01-13T05:00:36;7.28;;;1.80;;
46835;SDS011;32573;51.290;6.926;2023-01-13T05:03:05;6.88;;;2.03;;
46835;SDS011;32573;51.290;6.926;2023-01-13T05:05:34;5.53;;;1.50;;
46835;SDS011;32573;51.290;6.926;2023-01-13T05:08:04;8.57;;;1.60;;
46835;SDS011;32573;51.290;6.926;2023-01-13T05:10:34;6.40;;;1.50;;
46835;SDS011;32573;51.290;6.926;2023-01-13T05:13:04;7.57;;;1.40;;
46835;SDS011;32573;51.290;6.926;2023-01-13T05:15:50;5.47;;;1.35;;
46835;SDS011;32573;51.290;6.926;2023-01-13T05:18:37;6.63;;;1.27;;
46835;SDS011;32573;51.290;6.926;2023-01-13T05:21:05;7.88;;;1.85;;
46835;SDS011;32573;51.290;6.926;2023-01-13T05:23:54;5.22;;;1.40;;
46835;SDS011;32573;51.290;6.926;2023-01-13T05:26:41;6.43;;;1.60;;
46835;SDS011;32573;51.290;6.926;2023-01-13T05:29:12;7.15;;;1.23;;
46835;SDS011;32573;51.290;6.926;2023-01-13T05:31:40;5.97;;;1.48;;
46835;SDS011;32573;51.290;6.926;2023-01-13T05:34:08;6.68;;;1.40;;
46835;SDS011;32573;51.290;6.926;2023-01-13T05:36:37;7.68;;;1.42;;
46835;SDS011;32573;51.290;6.926;2023-01-13T05:39:05;5.50;;;1.30;;
46835;SDS011;32573;51.290;6.926;2023-01-13T05:41:34;6.50;;;1.60;;
46835;SDS011;32573;51.290;6.926;2023-01-13T05:44:21;6.05;;;1.55;;
46835;SDS011;32573;51.290;6.926;2023-01-13T05:46:49;8.15;;;1.40;;
46835;SDS011;32573;51.290;6.926;2023-01-13T05:49:17;7.90;;;1.50;;
46835;SDS011;32573;51.290;6.926;2023-01-13T05:51:46;5.00;;;1.48;;
46835;SDS011;32573;51.290;6.926;2023-01-13T05:54:17;5.40;;;1.60;;
46835;SDS011;32573;51.290;6.926;2023-01-13T05:56:45;8.10;;;1.45;;
46835;SDS011;32573;51.290;6.926;2023-01-13T05:59:14;6.18;;;1.30;;
46835;SDS011;32573;51.290;6.926;2023-01-13T06:01:43;10.32;;;1.75;;
46835;SDS011;32573;51.290;6.926;2023-01-13T06:04:12;8.05;;;1.50;;
46835;SDS011;32573;51.290;6.926;2023-01-13T06:06:40;8.35;;;1.67;;
46835;SDS011;32573;51.290;6.926;2023-01-13T06:09:10;6.15;;;1.48;;
46835;SDS011;32573;51.290;6.926;2023-01-13T06:11:39;6.43;;;1.58;;
46835;SDS011;32573;51.290;6.926;2023-01-13T06:14:09;7.97;;;1.38;;
46835;SDS011;32573;51.290;6.926;2023-01-13T06:16:37;8.15;;;1.55;;
46835;SDS011;32573;51.290;6.926;2023-01-13T06:19:07;8.48;;;1.70;;
46835;SDS011;32573;51.290;6.926;2023-01-13T06:21:39;7.53;;;1.60;;
46835;SDS011;32573;51.290;6.926;2023-01-13T06:24:07;9.13;;;1.58;;
46835;SDS011;32573;51.290;6.926;2023-01-13T06:26:37;5.85;;;1.50;;
46835;SDS011;32573;51.290;6.926;2023-01-13T06:29:07;7.22;;;1.58;;
46835;SDS011;32573;51.290;6.926;2023-01-13T06:31:36;6.88;;;1.63;;
46835;SDS011;32573;51.290;6.926;2023-01-13T06:34:08;9.40;;;1.70;;
46835;SDS011;32573;51.290;6.926;2023-01-13T06:36:40;7.82;;;1.77;;
46835;SDS011;32573;51.290;6.926;2023-01-13T06:39:12;5.43;;;1.52;;
46835;SDS011;32573;51.290;6.926;2023-01-13T06:41:44;6.00;;;1.38;;
46835;SDS011;32573;51.290;6.926;2023-01-13T06:44:33;7.13;;;1.40;;
46835;SDS011;32573;51.290;6.926;2023-01-13T06:47:01;7.35;;;1.80;;
46835;SDS011;32573;51.290;6.926;2023-01-13T06:49:31;8.05;;;1.70;;
46835;SDS011;32573;51.290;6.926;2023-01-13T06:52:00;5.72;;;1.60;;
46835;SDS011;32573;51.290;6.926;2023-01-13T06:54:29;9.45;;;1.60;;
46835;SDS011;32573;51.290;6.926;2023-01-13T06:56:57;5.07;;;1.40;;
46835;SDS011;32573;51.290;6.926;2023-01-13T06:59:28;5.45;;;1.50;;
46835;SDS011;32573;51.290;6.926;2023-01-13T07:01:56;7.20;;;1.60;;
46835;SDS011;32573;51.290;6.926;2023-01-13T07:04:25;4.07;;;1.23;;
46835;SDS011;32573;51.290;6.926;2023-01-13T07:06:55;5.10;;;1.20;;
46835;SDS011;32573;51.290;6.926;2023-01-13T07:09:23;5.72;;;1.60;;
46835;SDS011;32573;51.290;6.926;2023-01-13T07:11:51;5.95;;;1.38;;
46835;SDS011;32573;51.290;6.926;2023-01-13T07:14:20;8.48;;;1.63;;
46835;SDS011;32573;51.290;6.926;2023-01-13T07:17:06;5.40;;;1.33;;
46835;SDS011;32573;51.290;6.926;2023-01-13T07:19:34;8.50;;;1.60;;
46835;SDS011;32573;51.290;6.926;2023-01-13T07:22:04;5.82;;;1.30;;
46835;SDS011;32573;51.290;6.926;2023-01-13T07:24:33;7.97;;;1.92;;
46835;SDS011;32573;51.290;6.926;2023-01-13T07:27:01;5.45;;;1.20;;
46835;SDS011;32573;51.290;6.926;2023-01-13T07:29:30;6.97;;;1.35;;
46835;SDS011;32573;51.290;6.926;2023-01-13T07:31:59;6.18;;;1.38;;
46835;SDS011;32573;51.290;6.926;2023-01-13T07:34:27;8.65;;;1.60;;
46835;SDS011;32573;51.290;6.926;2023-01-13T07:36:56;7.15;;;1.27;;
46835;SDS011;32573;51.290;6.926;2023-01-13T07:39:26;5.40;;;1.40;;
46835;SDS011;32573;51.290;6.926;2023-01-13T07:41:54;5.68;;;1.45;;
46835;SDS011;32573;51.290;6.926;2023-01-13T07:44:40;10.02;;;1.60;;
46835;SDS011;32573;51.290;6.926;2023-01-13T07:47:08;7.90;;;1.48;;
46835;SDS011;32573;51.290;6.926;2023-01-13T07:49:37;5.22;;;1.40;;
46835;SDS011;32573;51.290;6.926;2023-01-13T07:52:08;6.85;;;1.30;;
46835;SDS011;32573;51.290;6.926;2023-01-13T07:54:38;9.25;;;1.63;;
46835;SDS011;32573;51.290;6.926;2023-01-13T07:57:07;6.63;;;1.63;;
46835;SDS011;32573;51.290;6.926;2023-01-13T07:59:35;6.95;;;1.30;;
46835;SDS011;32573;51.290;6.926;2023-01-13T08:02:04;8.82;;;1.67;;
46835;SDS011;32573;51.290;6.926;2023-01-13T08:04:33;7.45;;;1.80;;
46835;SDS011;32573;51.290;6.926;2023-01-13T08:07:01;10.90;;;1.55;;
46835;SDS011;32573;51.290;6.926;2023-01-13T08:09:31;10.07;;;1.67;;
46835;SDS011;32573;51.290;6.926;2023-01-13T08:12:01;9.98;;;1.70;;
46835;SDS011;32573;51.290;6.926;2023-01-13T08:14:47;6.55;;;1.40;;
46835;SDS011;32573;51.290;6.926;2023-01-13T08:17:16;6.18;;;1.33;;
46835;SDS011;32573;51.290;6.926;2023-01-13T08:19:46;4.13;;;1.20;;
46835;SDS011;32573;51.290;6.926;2023-01-13T08:22:15;5.82;;;1.42;;
46835;SDS011;32573;51.290;6.926;2023-01-13T08:24:43;6.13;;;1.50;;
46835;SDS011;32573;51.290;6.926;2023-01-13T08:27:13;4.30;;;1.13;;
46835;SDS011;32573;51.290;6.926;2023-01-13T08:29:42;6.32;;;1.25;;
46835;SDS011;32573;51.290;6.926;2023-01-13T08:32:12;6.05;;;1.23;;
46835;SDS011;32573;51.290;6.926;2023-01-13T08:34:42;8.93;;;1.33;;
46835;SDS011;32573;51.290;6.926;2023-01-13T08:37:11;5.25;;;1.45;;
46835;SDS011;32573;51.290;6.926;2023-01-13T08:39:39;10.70;;;1.58;;
46835;SDS011;32573;51.290;6.926;2023-01-13T08:42:08;7.38;;;1.50;;
46835;SDS011;32573;51.290;6.926;2023-01-13T08:44:38;6.40;;;1.38;;
46835;SDS011;32573;51.290;6.926;2023-01-13T08:47:06;6.68;;;1.60;;
46835;SDS011;32573;51.290;6.926;2023-01-13T08:49:35;8.40;;;1.52;;
46835;SDS011;32573;51.290;6.926;2023-01-13T08:52:03;5.85;;;1.77;;
46835;SDS011;32573;51.290;6.926;2023-01-13T08:54:32;6.88;;;1.50;;
46835;SDS011;32573;51.290;6.926;2023-01-13T08:57:00;7.75;;;1.90;;
46835;SDS011;32573;51.290;6.926;2023-01-13T08:59:30;6.20;;;1.73;;
46835;SDS011;32573;51.290;6.926;2023-01-13T09:02:00;6.78;;;1.52;;
46835;SDS011;32573;51.290;6.926;2023-01-13T09:04:29;13.25;;;1.70;;
46835;SDS011;32573;51.290;6.926;2023-01-13T09:06:58;8.85;;;1.60;;
46835;SDS011;32573;51.290;6.926;2023-01-13T09:09:28;7.78;;;1.83;;
46835;SDS011;32573;51.290;6.926;2023-01-13T09:11:56;7.03;;;1.77;;
46835;SDS011;32573;51.290;6.926;2023-01-13T09:14:42;10.57;;;1.90;;
46835;SDS011;32573;51.290;6.926;2023-01-13T09:17:12;11.43;;;1.75;;
46835;SDS011;32573;51.290;6.926;2023-01-13T09:19:41;10.23;;;2.15;;
46835;SDS011;32573;51.290;6.926;2023-01-13T09:22:16;8.80;;;1.75;;
46835;SDS011;32573;51.290;6.926;2023-01-13T09:24:46;8.45;;;1.90;;
46835;SDS011;32573;51.290;6.926;2023-01-13T09:27:17;11.70;;;1.90;;
46835;SDS011;32573;51.290;6.926;2023-01-13T09:29:45;10.35;;;2.03;;
46835;SDS011;32573;51.290;6.926;2023-01-13T09:32:15;7.53;;;1.75;;
46835;SDS011;32573;51.290;6.926;2023-01-13T09:34:44;8.27;;;1.52;;
46835;SDS011;32573;51.290;6.926;2023-01-13T09:37:27;7.63;;;1.67;;
46835;SDS011;32573;51.290;6.926;2023-01-13T09:39:56;9.10;;;2.05;;
46835;SDS011;32573;51.290;6.926;2023-01-13T09:42:27;9.00;;;1.98;;
46835;SDS011;32573;51.290;6.926;2023-01-13T09:45:18;9.80;;;2.10;;
46835;SDS011;32573;51.290;6.926;2023-01-13T09:47:52;9.13;;;1.85;;
46835;SDS011;32573;51.290;6.926;2023-01-13T09:50:27;10.35;;;2.00;;
46835;SDS011;32573;51.290;6.926;2023-01-13T09:53:01;12.80;;;2.40;;
46835;SDS011;32573;51.290;6.926;2023-01-13T09:55:37;8.98;;;2.08;;
46835;SDS011;32573;51.290;6.926;2023-01-13T09:58:09;13.63;;;2.42;;
46835;SDS011;32573;51.290;6.926;2023-01-13T10:00:40;9.77;;;1.85;;
46835;SDS011;32573;51.290;6.926;2023-01-13T10:03:24;11.13;;;2.20;;
46835;SDS011;32573;51.290;6.926;2023-01-13T10:05:56;12.77;;;2.22;;
46835;SDS011;32573;51.290;6.926;2023-01-13T10:08:30;12.13;;;2.20;;
46835;SDS011;32573;51.290;6.926;2023-01-13T10:11:02;11.13;;;2.08;;
46835;SDS011;32573;51.290;6.926;2023-01-13T10:13:57;15.00;;;2.45;;
46835;SDS011;32573;51.290;6.926;2023-01-13T10:16:32;9.13;;;1.98;;
46835;SDS011;32573;51.290;6.926;2023-01-13T10:19:13;8.98;;;2.05;;
46835;SDS011;32573;51.290;6.926;2023-01-13T10:24:59;14.57;;;2.05;;
46835;SDS011;32573;51.290;6.926;2023-01-13T10:27:46;14.05;;;2.40;;
46835;SDS011;32573;51.290;6.926;2023-01-13T10:30:17;12.10;;;2.60;;
46835;SDS011;32573;51.290;6.926;2023-01-13T10:32:51;10.50;;;2.10;;
46835;SDS011;32573;51.290;6.926;2023-01-13T10:38:19;10.77;;;2.22;;
46835;SDS011;32573;51.290;6.926;2023-01-13T10:40:51;11.35;;;2.40;;
46835;SDS011;32573;51.290;6.926;2023-01-13T10:43:21;12.27;;;2.85;;
46835;SDS011;32573;51.290;6.926;2023-01-13T10:45:51;12.07;;;2.25;;
46835;SDS011;32573;51.290;6.926;2023-01-13T10:48:32;9.05;;;1.90;;
46835;SDS011;32573;51.290;6.926;2023-01-13T10:53:59;9.48;;;1.67;;
46835;SDS011;32573;51.290;6.926;2023-01-13T10:59:08;8.23;;;1.75;;
46835;SDS011;32573;51.290;6.926;2023-01-13T11:01:41;10.57;;;2.10;;
46835;SDS011;32573;51.290;6.926;2023-01-13T11:04:24;11.35;;;2.15;;
46835;SDS011;32573;51.290;6.926;2023-01-13T11:06:57;12.77;;;2.45;;
46835;SDS011;32573;51.290;6.926;2023-01-13T11:09:27;10.85;;;2.38;;
46835;SDS011;32573;51.290;6.926;2023-01-13T11:11:58;7.88;;;2.13;;
46835;SDS011;32573;51.290;6.926;2023-01-13T11:14:31;11.85;;;2.05;;
46835;SDS011;32573;51.290;6.926;2023-01-13T11:17:09;12.30;;;2.22;;
46835;SDS011;32573;51.290;6.926;2023-01-13T11:19:57;9.23;;;2.15;;
46835;SDS011;32573;51.290;6.926;2023-01-13T11:22:32;9.13;;;2.20;;
46835;SDS011;32573;51.290;6.926;2023-01-13T11:25:08;8.98;;;1.90;;
46835;SDS011;32573;51.290;6.926;2023-01-13T11:27:43;13.82;;;1.95;;
46835;SDS011;32573;51.290;6.926;2023-01-13T11:30:24;10.70;;;2.35;;
46835;SDS011;32573;51.290;6.926;2023-01-13T11:33:06;11.50;;;2.00;;
46835;SDS011;32573;51.290;6.926;2023-01-13T11:35:50;11.93;;;2.00;;
46835;SDS011;32573;51.290;6.926;2023-01-13T11:38:32;9.80;;;2.38;;
46835;SDS011;32573;51.290;6.926;2023-01-13T11:41:11;10.73;;;2.30;;
46835;SDS011;32573;51.290;6.926;2023-01-13T11:43:55;11.98;;;2.35;;
46835;SDS011;32573;51.290;6.926;2023-01-13T11:46:32;8.57;;;2.22;;
46835;SDS011;32573;51.290;6.926;2023-01-13T11:49:03;12.48;;;2.55;;
46835;SDS011;32573;51.290;6.926;2023-01-13T11:51:33;10.30;;;2.40;;
46835;SDS011;32573;51.290;6.926;2023-01-13T11:54:14;11.75;;;2.38;;
46835;SDS011;32573;51.290;6.926;2023-01-13T11:57:03;11.35;;;2.80;;
46835;SDS011;32573;51.290;6.926;2023-01-13T12:02:47;11.40;;;2.22;;
46835;SDS011;32573;51.290;6.926;2023-01-13T12:05:27;10.45;;;2.35;;
46835;SDS011;32573;51.290;6.926;2023-01-13T12:08:09;8.90;;;2.40;;
46835;SDS011;32573;51.290;6.926;2023-01-13T12:10:55;9.05;;;2.00;;
46835;SDS011;32573;51.290;6.926;2023-01-13T12:13:37;10.88;;;2.13;;
46835;SDS011;32573;51.290;6.926;2023-01-13T12:16:19;9.38;;;2.17;;
46835;SDS011;32573;51.290;6.926;2023-01-13T12:19:09;8.27;;;1.73;;
46835;SDS011;32573;51.290;6.926;2023-01-13T12:22:04;12.98;;;2.55;;
46835;SDS011;32573;51.290;6.926;2023-01-13T12:24:52;12.27;;;2.10;;
46835;SDS011;32573;51.290;6.926;2023-01-13T12:27:36;11.63;;;2.38;;
46835;SDS011;32573;51.290;6.926;2023-01-13T12:30:16;9.80;;;2.00;;
46835;SDS011;32573;51.290;6.926;2023-01-13T12:32:56;13.75;;;2.78;;
46835;SDS011;32573;51.290;6.926;2023-01-13T12:35:38;10.27;;;2.10;;
46835;SDS011;32573;51.290;6.926;2023-01-13T12:38:15;9.00;;;1.88;;
46835;SDS011;32573;51.290;6.926;2023-01-13T12:40:55;15.65;;;2.33;;
46835;SDS011;32573;51.290;6.926;2023-01-13T12:43:32;10.32;;;2.08;;
46835;SDS011;32573;51.290;6.926;2023-01-13T12:49:25;10.52;;;2.30;;
46835;SDS011;32573;51.290;6.926;2023-01-13T12:54:59;9.68;;;2.03;;
46835;SDS011;32573;51.290;6.926;2023-01-13T13:00:54;10.88;;;2.10;;
46835;SDS011;32573;51.290;6.926;2023-01-13T13:03:30;7.18;;;1.70;;
46835;SDS011;32573;51.290;6.926;2023-01-13T13:06:01;10.38;;;2.10;;
46835;SDS011;32573;51.290;6.926;2023-01-13T13:08:42;7.32;;;1.90;;
46835;SDS011;32573;51.290;6.926;2023-01-13T13:17:44;9.25;;;2.13;;
46835;SDS011;32573;51.290;6.926;2023-01-13T13:23:35;4.93;;;1.80;;
46835;SDS011;32573;51.290;6.926;2023-01-13T13:26:30;9.75;;;1.90;;
46835;SDS011;32573;51.290;6.926;2023-01-13T13:32:29;8.20;;;2.00;;
46835;SDS011;32573;51.290;6.926;2023-01-13T13:35:10;8.80;;;1.95;;
46835;SDS011;32573;51.290;6.926;2023-01-13T13:38:00;10.55;;;1.98;;
46835;SDS011;32573;51.290;6.926;2023-01-13T13:40:57;9.93;;;2.05;;
46835;SDS011;32573;51.290;6.926;2023-01-13T13:43:43;7.72;;;1.75;;
46835;SDS011;32573;51.290;6.926;2023-01-13T13:46:30;8.57;;;2.05;;
46835;SDS011;32573;51.290;6.926;2023-01-13T13:49:17;4.97;;;1.55;;
46835;SDS011;32573;51.290;6.926;2023-01-13T13:51:49;9.48;;;2.20;;
46835;SDS011;32573;51.290;6.926;2023-01-13T13:54:25;8.43;;;2.17;;
46835;SDS011;32573;51.290;6.926;2023-01-13T13:56:54;10.27;;;2.08;;
46835;SDS011;32573;51.290;6.926;2023-01-13T13:59:24;9.02;;;1.95;;
46835;SDS011;32573;51.290;6.926;2023-01-13T14:01:56;12.65;;;2.33;;
46835;SDS011;32573;51.290;6.926;2023-01-13T14:04:30;11.93;;;2.03;;
46835;SDS011;32573;51.290;6.926;2023-01-13T14:07:04;8.20;;;2.40;;
46835;SDS011;32573;51.290;6.926;2023-01-13T14:09:44;12.45;;;2.58;;
46835;SDS011;32573;51.290;6.926;2023-01-13T14:12:17;12.82;;;2.50;;
46835;SDS011;32573;51.290;6.926;2023-01-13T14:14:47;11.85;;;2.20;;
46835;SDS011;32573;51.290;6.926;2023-01-13T14:17:17;8.25;;;2.10;;
46835;SDS011;32573;51.290;6.926;2023-01-13T14:19:49;9.32;;;2.28;;
46835;SDS011;32573;51.290;6.926;2023-01-13T14:22:21;11.57;;;2.42;;
46835;SDS011;32573;51.290;6.926;2023-01-13T14:24:50;11.80;;;2.20;;
46835;SDS011;32573;51.290;6.926;2023-01-13T14:27:22;12.02;;;2.35;;
46835;SDS011;32573;51.290;6.926;2023-01-13T14:29:54;10.20;;;2.13;;
46835;SDS011;32573;51.290;6.926;2023-01-13T14:32:27;7.05;;;1.95;;
46835;SDS011;32573;51.290;6.926;2023-01-13T14:35:00;9.25;;;2.58;;
46835;SDS011;32573;51.290;6.926;2023-01-13T14:37:34;6.07;;;1.83;;
46835;SDS011;32573;51.290;6.926;2023-01-13T14:43:11;8.63;;;2.17;;
46835;SDS011;32573;51.290;6.926;2023-01-13T14:45:52;6.97;;;1.90;;
46835;SDS011;32573;51.290;6.926;2023-01-13T14:48:24;12.02;;;2.28;;
46835;SDS011;32573;51.290;6.926;2023-01-13T14:51:01;8.63;;;2.10;;
46835;SDS011;32573;51.290;6.926;2023-01-13T14:53:36;10.25;;;2.22;;
46835;SDS011;32573;51.290;6.926;2023-01-13T14:59:39;9.23;;;2.28;;
46835;SDS011;32573;51.290;6.926;2023-01-13T15:05:22;6.72;;;1.85;;
46835;SDS011;32573;51.290;6.926;2023-01-13T15:07:58;7.45;;;2.10;;
46835;SDS011;32573;51.290;6.926;2023-01-13T15:10:31;8.25;;;2.35;;
46835;SDS011;32573;51.290;6.926;2023-01-13T15:13:02;8.65;;;2.30;;
46835;SDS011;32573;51.290;6.926;2023-01-13T15:15:32;7.28;;;2.00;;
46835;SDS011;32573;51.290;6.926;2023-01-13T15:18:07;10.75;;;2.33;;
46835;SDS011;32573;51.290;6.926;2023-01-13T15:20:40;9.95;;;2.60;;
46835;SDS011;32573;51.290;6.926;2023-01-13T15:23:09;8.82;;;2.63;;
46835;SDS011;32573;51.290;6.926;2023-01-13T15:25:40;11.73;;;2.40;;
46835;SDS011;32573;51.290;6.926;2023-01-13T15:28:13;10.68;;;2.67;;
46835;SDS011;32573;51.290;6.926;2023-01-13T15:33:12;7.50;;;2.25;;
46835;SDS011;32573;51.290;6.926;2023-01-13T15:35:42;10.00;;;2.28;;
46835;SDS011;32573;51.290;6.926;2023-01-13T15:38:13;9.43;;;2.33;;
46835;SDS011;32573;51.290;6.926;2023-01-13T15:40:46;10.88;;;2.30;;
46835;SDS011;32573;51.290;6.926;2023-01-13T15:43:16;6.25;;;2.08;;
46835;SDS011;32573;51.290;6.926;2023-01-13T15:46:04;11.35;;;2.35;;
46835;SDS011;32573;51.290;6.926;2023-01-13T15:48:55;11.23;;;2.20;;
46835;SDS011;32573;51.290;6.926;2023-01-13T15:51:24;8.85;;;2.28;;
46835;SDS011;32573;51.290;6.926;2023-01-13T15:53:53;12.80;;;2.50;;
46835;SDS011;32573;51.290;6.926;2023-01-13T15:56:24;12.27;;;2.45;;
46835;SDS011;32573;51.290;6.926;2023-01-13T15:58:53;9.02;;;2.20;;
46835;SDS011;32573;51.290;6.926;2023-01-13T16:01:22;9.00;;;2.40;;
46835;SDS011;32573;51.290;6.926;2023-01-13T16:03:50;8.38;;;2.25;;
46835;SDS011;32573;51.290;6.926;2023-01-13T16:06:20;7.45;;;2.28;;
46835;SDS011;32573;51.290;6.926;2023-01-13T16:08:53;10.13;;;2.40;;
46835;SDS011;32573;51.290;6.926;2023-01-13T16:11:22;10.55;;;2.28;;
46835;SDS011;32573;51.290;6.926;2023-01-13T16:13:51;6.53;;;2.30;;
46835;SDS011;32573;51.290;6.926;2023-01-13T16:16:21;6.68;;;2.10;;
46835;SDS011;32573;51.290;6.926;2023-01-13T16:18:51;11.65;;;2.10;;
46835;SDS011;32573;51.290;6.926;2023-01-13T16:21:21;6.18;;;2.20;;